Tiempo atmosférico en la estación meteorológica de Alicante/Alacant Aeropuerto, Alacant/Alicante (43 m.)



Fecha
DESCASC
Temp. máxima en grados centígrados (hora)
DESCASC
Temp. mínima en grados centígrados (hora)
DESCASC
Temp. media en grados centígrados
DESCASC
Racha de viento máxima en m/sg (hora)
DESCASC
Velocidad máxima media en intervalos de 10 minutos(hora)
DESCASC
Precipitaciones diarias en mm
DESCASC
Precipitaciones de 00:00 a 06:00 en mm
DESCASC
Precipitaciones de 06:00 a 12:00 en mm
DESCASC
Precipitaciones de 12:00 a 18:00 en mm
DESCASC
Precipitaciones de 18:00 a 24:00 en mm
DESCASC

Gráficas

Temp. máximas Temp. mínimas Temp. medias Precipitaciones Rachas de viento máximas Velocidades máximas media en intervalos de 10 minutos

Datos horarios

Fecha y hora oficial Temperatura (ºC) Velocidad del viento (km/h) Dirección del viento Racha (km/h) Dirección de racha Precipitación (mm) Presión (hPa) Tendencia (hPa) Humedad (%)
2019-10-15 23:00:00 14.5 10 Oeste 13 Oeste 0 1017.1 1.3 61
2019-10-15 22:00:00 15.1 11 Sudoeste 21 Sudoeste 0 1016.8 1.5 59
2019-10-15 21:00:00 16 10 Noroeste 13 Oeste 0 1016.3 1.5 52
2019-10-15 20:00:00 18.3 8 Oeste 24 Noroeste 0 1015.8 0.9 44
2019-10-15 19:00:00 21.8 10 Noroeste 22 Noroeste 0 1015.3 0.1 31
2019-10-15 18:00:00 23.2 15 Oeste 30 Oeste 0 1014.8 -0.7 27
2019-10-15 17:00:00 23.2 15 Oeste 32 Oeste 0 1014.9 -1.2 26
2019-10-15 16:00:00 22.9 24 Oeste 37 Noroeste 0 1015.2 -1.2 26
2019-10-15 15:00:00 22.3 26 Oeste 39 Noroeste 0 1015.5 -1.2 28
2019-10-15 14:00:00 21.5 30 Noroeste 46 Oeste 0 1016.1 -0.5 31
2019-10-15 13:00:00 20.2 31 Noroeste 50 Oeste 0 1016.4 0.8 36
2019-10-15 12:00:00 18.9 33 Oeste 58 Oeste 0 1016.7 1.4 41
2019-10-15 11:00:00 17.5 31 Oeste 55 Noroeste 0 1016.6 2.2 48
2019-10-15 10:00:00 16.5 40 Oeste 52 Oeste 0 1015.6 1.2 53
2019-10-15 09:00:00 15.6 23 Oeste 52 Noroeste 0 1015.3 1.5 56
2019-10-15 08:00:00 15.4 40 Noroeste 55 Noroeste 0 1014.4 1 58
2019-10-15 07:00:00 15.5 14 Oeste 33 Oeste 0 1014.4 1.7 58
2019-10-15 06:00:00 16.2 13 Oeste 45 Oeste 0 1013.8 1.5 56
2019-10-15 05:00:00 16.7 10 Oeste 35 Oeste 0 1013.4 1.3 56
2019-10-15 04:00:00 17.1 14 Oeste 41 Noroeste 0 1012.7 1.2 57
2019-10-15 03:00:00 17.4 25 Oeste 42 Noroeste 0 1012.3 1.6 55
2019-10-15 02:00:00 17.6 30 Noroeste 58 Noroeste 0 1012.1 1.9 62
2019-10-15 01:00:00 18.2 32 Noroeste 46 Oeste 0 1011.5 1.7 62
2019-10-15 00:00:00 18.7 12 Oeste 22 Oeste 0 1010.7 1.2 69
2019-10-14 23:00:00 18.1 5 Oeste 8 Sudoeste 0 1010.2 1.7 94
2019-10-14 22:00:00 19.4 6 Norte 15 Este 0 1009.8 1.6 89
2019-10-14 21:00:00 19 6 Sur 50 Oeste 3 1009.5 1.3 89
2019-10-14 20:00:00 22.2 0 Calma 13 Sudeste 0 1008.5 0 87
2019-10-14 19:00:00 23.1 10 Sudeste 18 Sudeste 0 1008.2 -0.7 82
2019-10-14 18:00:00 23.9 10 Sudeste 24 Sur 0 1008.2 -0.7 78
2019-10-14 17:00:00 24.9 13 Sur 21 Sur 0 1008.5 -0.6 70
2019-10-14 16:00:00 24.9 11 Sur 21 Sur 0 1008.9 -0.3 69
2019-10-14 15:00:00 24.6 12 Sudeste 18 Sudeste 0.1 1008.9 -2.3 74
2019-10-14 14:00:00 22.6 6 Noroeste 15 Noroeste 0 1009.1 -1.7 75
2019-10-14 13:00:00 22.8 15 Norte 32 Norte 0.3 1009.2 -0.3 78
2019-10-14 12:00:00 23 13 Noroeste 22 Noroeste 0 1011.2 1.9 82
2019-10-14 11:00:00 22.7 3 Oeste 17 Nordeste 0 1010.8 1.2 82
2019-10-14 10:00:00 22.5 10 Nordeste 18 Nordeste 0 1009.5 -0.5 78
2019-10-14 09:00:00 21 12 Nordeste 22 Nordeste 0 1009.3 -0.8 85
2019-10-14 08:00:00 18.7 10 Norte 17 Nordeste 0 1009.6 -0.9 95
2019-10-14 07:00:00 19.2 9 Norte 17 Norte 0 1010 -1.3 93
2019-10-14 06:00:00 19.6 14 Norte 18 Norte 0 1010.1 -2 92
2019-10-14 05:00:00 20.2 10 Norte 15 Norte 0 1010.5 -2 91
2019-10-14 04:00:00 20.6 9 Norte 13 Noroeste 0 1011.3 -0.8 92
2019-10-14 03:00:00 20.1 5 Noroeste 11 Oeste 0 1012.1 -0.5 93
2019-10-14 02:00:00 20.1 9 Oeste 13 Norte 0 1012.5 0 93
2019-10-14 01:00:00 20.4 10 Norte 15 Norte 0 1012.1 -0.5 95
2019-10-14 00:00:00 20.3 3 Oeste 13 Nordeste 0 1012.6 -0.2 94
2019-10-13 23:00:00 20.2 5 Norte 9 Norte 0 1012.5 -0.2 92
2019-10-13 22:00:00 21.6 4 Noroeste 8 Noroeste 0 1012.6 -0.1 89
2019-10-13 21:00:00 22.3 0 Calma 5 Sudeste 0 1012.8 0.4 88
2019-10-13 20:00:00 22.1 0 Calma 13 Sudeste 0 1012.7 0.5 89
2019-10-13 19:00:00 23.2 9 Sudeste 17 Este 0 1012.7 0.5 84
2019-10-13 18:00:00 24.5 13 Sudeste 21 Sudeste 0 1012.4 -0.1 76
2019-10-13 17:00:00 25.6 12 Sudeste 22 Sudeste 0 1012.2 -0.8 70
2019-10-13 16:00:00 26.7 15 Este 24 Este 0 1012.2 -1.6 63
2019-10-13 15:00:00 26.3 15 Este 24 Este 0 1012.5 -1.3 62
2019-10-13 14:00:00 26.8 12 Este 22 Norte 0 1013 -0.6 60
2019-10-13 13:00:00 26.6 8 Sur 18 Sur 0 1013.8 0.6 55
2019-10-13 12:00:00 25.8 7 Sudeste 15 Sudeste 0 1013.8 1.1 55
2019-10-13 11:00:00 24.5 5 Sudoeste 13 Noroeste 0 1013.6 1.4 58
2019-10-13 10:00:00 21.8 11 Noroeste 17 Oeste 0 1013.2 1.2 71
2019-10-13 09:00:00 18.4 12 Oeste 17 Oeste 0 1012.7 0.8 84
2019-10-13 08:00:00 17.8 12 Oeste 15 Oeste 0 1012.2 0.2 85
2019-10-13 07:00:00 18 10 Oeste 17 Noroeste 0 1012 -0.5 85
2019-10-13 06:00:00 18 12 Noroeste 17 Noroeste 0 1011.9 -1.2 86
2019-10-13 05:00:00 18.7 8 Noroeste 9 Noroeste 0 1012 -1.3 85
2019-10-13 04:00:00 19.5 6 Noroeste 13 Norte 0 1012.5 -1 88
2019-10-13 03:00:00 19.9 6 Noroeste 13 Norte 0 1013.1 -0.5 91
2019-10-13 02:00:00 21.5 10 Norte 17 Norte 0 1013.3 -0.1 87
2019-10-13 01:00:00 21.9 13 Nordeste 28 Este 0 1013.5 0.6 88
2019-10-13 00:00:00 22.2 19 Este 30 Este 0 1013.6 0.8 88
2019-10-12 23:00:00 22.2 20 Este 30 Este 0 1013.4 0.8 89
2019-10-12 22:00:00 22.5 19 Este 32 Este 0 1012.9 0.8 88
2019-10-12 21:00:00 23 20 Este 33 Este 0 1012.8 0.6 88
2019-10-12 20:00:00 23.4 26 Este 39 Este 0 1012.6 0 86
2019-10-12 19:00:00 24.1 28 Este 42 Este 0 1012.1 -0.8 80
2019-10-12 18:00:00 24.1 21 Este 41 Este 0 1012.2 -1.4 81
2019-10-12 17:00:00 25.6 26 Nordeste 39 Este 0 1012.6 -1.4 76
2019-10-12 16:00:00 25.8 27 Este 37 Este 0 1012.9 -1.4 76
2019-10-12 15:00:00 25.9 24 Este 37 Este 0 1013.6 -1.3 75
2019-10-12 14:00:00 25 22 Este 37 Nordeste 0 1014 -0.8 75
2019-10-12 13:00:00 25.3 25 Este 35 Este 0 1014.3 -0.1 72
2019-10-12 12:00:00 24.8 21 Nordeste 33 Este 0 1014.9 0.9 72
2019-10-12 11:00:00 24.6 15 Nordeste 28 Nordeste 0 1014.8 1 69
2019-10-12 10:00:00 23.1 10 Norte 17 Norte 0 1014.4 0.4 69
2019-10-12 09:00:00 21.2 8 Norte 15 Nordeste 0 1014 0.2 77
2019-10-12 08:00:00 20.5 7 Norte 13 Norte 0 1013.8 -0.1 79
2019-10-12 07:00:00 18.7 5 Norte 9 Nordeste 0 1014 -0.3 83
2019-10-12 06:00:00 20.3 6 Norte 17 Norte 0 1013.8 -1.2 74
2019-10-12 05:00:00 19.3 8 Norte 15 Norte 0 1013.9 -1.6 84
2019-10-12 04:00:00 19.2 10 Norte 17 Norte 0 1014.3 -1.5 87
2019-10-12 03:00:00 19.5 10 Norte 15 Norte 0 1015 -1 86
2019-10-12 02:00:00 19.8 11 Norte 18 Norte 0 1015.5 -0.5 87
2019-10-12 01:00:00 21.1 11 Norte 21 Norte 0 1015.8 0.1 82
2019-10-12 00:00:00 21.2 12 Norte 17 Norte 0 1016 0.7 83
2019-10-11 23:00:00 21.4 8 Norte 21 Este 0 1016 0.6 83
2019-10-11 22:00:00 21.7 14 Nordeste 24 Este 0 1015.7 0.5 84
2019-10-11 21:00:00 22.2 16 Nordeste 26 Este 0 1015.3 -0.1 81
2019-10-11 20:00:00 22.5 15 Este 26 Este 0 1015.4 -0.2 80
2019-10-11 19:00:00 23 18 Este 26 Este 0 1015.2 -0.9 78
2019-10-11 18:00:00 23.6 20 Este 32 Este 0 1015.4 -1.1 76
2019-10-11 17:00:00 24.2 22 Este 32 Norte 0 1015.6 -1.9 73
2019-10-11 16:00:00 24.7 21 Este 32 Este 0 1016.1 -2.1 68
2019-10-11 15:00:00 25.2 21 Este 30 Nordeste 0 1016.5 -2 67
2019-10-11 14:00:00 25.2 21 Este 32 Este 0 1017.5 -1 66
2019-10-11 13:00:00 25 19 Este 30 Este 0 1018.2 0 70
2019-10-11 12:00:00 25 18 Nordeste 28 Nordeste 0 1018.5 0.9 66
2019-10-11 11:00:00 24.5 17 Nordeste 26 Nordeste 0 1018.5 1.2 69
2019-10-11 10:00:00 23.1 12 Norte 21 Norte 0 1018.2 1 70
2019-10-11 09:00:00 19.9 10 Norte 21 Norte 0 1017.6 0 81
2019-10-11 08:00:00 19.9 13 Norte 17 Norte 0 1017.3 -0.1 80
2019-10-11 07:00:00 20.5 12 Norte 18 Norte 0 1017.2 -0.5 79
2019-10-11 06:00:00 20.2 11 Norte 17 Norte 0 1017.6 -0.1 82
2019-10-11 05:00:00 20.2 12 Norte 17 Norte 0 1017.4 -0.4 83
2019-10-11 04:00:00 20.4 12 Norte 17 Norte 0 1017.7 -0.4 84
2019-10-11 03:00:00 20.9 9 Norte 18 Este 0 1017.7 -0.4 84
2019-10-11 02:00:00 21.5 13 Nordeste 24 Este 0 1017.8 -0.3 81
2019-10-11 01:00:00 21.7 16 Este 22 Este 0 1018.1 0.4 81
2019-10-11 00:00:00 22.2 17 Este 26 Este 0 1018.1 0.8 80
2019-10-10 23:00:00 22.3 16 Nordeste 24 Este 0 1018.1 1 80
2019-10-10 22:00:00 22.7 17 Este 24 Este 0 1017.7 0.9 77
2019-10-10 21:00:00 22.7 13 Nordeste 18 Este 0 1017.3 0.6 78
2019-10-10 20:00:00 22.5 14 Este 22 Este 0 1017.1 0.5 78
2019-10-10 19:00:00 23.2 16 Nordeste 24 Este 0 1016.8 0.1 77
2019-10-10 18:00:00 24 15 Este 26 Este 0 1016.7 -0.3 73
2019-10-10 17:00:00 24.8 17 Este 28 Este 0 1016.6 -0.9 66
2019-10-10 16:00:00 25.2 16 Este 28 Este 0 1016.7 -1.3 63
2019-10-10 15:00:00 25.4 17 Este 26 Este 0 1017 -1.2 64
2019-10-10 14:00:00 25.4 15 Este 26 Nordeste 0 1017.5 -0.6 62
2019-10-10 13:00:00 25.6 15 Este 26 Norte 0 1018 0.3 63
2019-10-10 12:00:00 24.9 14 Este 22 Este 0 1018.2 1.3 65
2019-10-10 11:00:00 24.2 15 Este 24 Nordeste 0 1018.1 1.9 68
2019-10-10 10:00:00 23.1 12 Norte 21 Norte 0 1017.7 2 70
2019-10-10 09:00:00 20.1 10 Norte 17 Norte 0 1016.9 1.5 83
2019-10-10 08:00:00 20.6 9 Norte 17 Nordeste 0 1016.2 0.8 79
2019-10-10 07:00:00 20.5 10 Norte 15 Norte 0 1015.7 0.2 83
2019-10-10 06:00:00 21 11 Nordeste 18 Este 0 1015.4 -0.2 84
2019-10-10 05:00:00 22 15 Este 22 Este 0 1015.4 0 81
2019-10-10 04:00:00 22 9 Nordeste 13 Norte 0 1015.5 0.2 80
2019-10-10 03:00:00 22.1 10 Norte 17 Norte 0 1015.6 0.3 79
2019-10-10 02:00:00 22 10 Norte 17 Norte 0 1015.4 0.4 78
2019-10-10 01:00:00 22 12 Norte 17 Norte 0 1015.3 1.1 77
2019-10-10 00:00:00 21.9 9 Norte 15 Norte 0 1015.3 1.6 78
2019-10-09 23:00:00 20.2 0 Calma 8 Nordeste 0 1015 1.8 86
2019-10-09 22:00:00 21.6 5 Norte 9 Norte 0 1014.2 1.6 79
2019-10-09 21:00:00 21.7 0 Calma 5 Sudeste 0 1013.7 1.6 78
2019-10-09 20:00:00 21.6 2 Sudeste 15 Sudeste 0 1013.2 1 81
2019-10-09 19:00:00 23.4 10 Sudeste 18 Este 0 1012.6 0.2 72
2019-10-09 18:00:00 25.2 11 Sudeste 17 Sudeste 0 1012.1 -0.6 63
2019-10-09 17:00:00 25.5 6 Sur 18 Sur 0 1012.2 -1.1 63
2019-10-09 16:00:00 25.9 9 Sur 21 Norte 0 1012.4 -1.5 62
2019-10-09 15:00:00 25.5 8 Sur 17 Sudeste 0 1012.7 -1.4 60
2019-10-09 14:00:00 25.6 9 Sudoeste 21 Sur 0 1013.3 -1 59
2019-10-09 13:00:00 25.2 10 Sur 17 Sur 0 1013.9 -0.2 60
2019-10-09 12:00:00 24.3 9 Sudoeste 17 Sudoeste 0 1014.1 0.6 63
2019-10-09 11:00:00 23 9 Sudoeste 15 Sudoeste 0 1014.3 1.2 68
2019-10-09 10:00:00 21.3 6 Oeste 11 Noroeste 0 1014.1 0.9 73
2019-10-09 09:00:00 18.2 0 Calma 8 Noroeste 0 1013.5 0.4 87
2019-10-09 08:00:00 17 3 Oeste 8 Oeste 0 1013.1 -0.1 91
2019-10-09 07:00:00 17 2 Oeste 8 Oeste 0 1013.2 -0.3 91
2019-10-09 06:00:00 16.7 5 Noroeste 11 Oeste 0 1013.1 -0.9 93
2019-10-09 05:00:00 17.4 0 Calma 8 Noroeste 0 1013.2 -1.1 89
2019-10-09 04:00:00 17.5 5 Noroeste 8 Oeste 0 1013.5 -1.1 89
2019-10-09 03:00:00 17.7 4 Oeste 5 Oeste 0 1014 -0.8 89
2019-10-09 02:00:00 17.7 0 Calma 5 Noroeste 0 1014.3 -0.3 89
2019-10-09 01:00:00 18.1 3 Noroeste 5 Noroeste 0 1014.6 0.2 88
2019-10-09 00:00:00 18.6 0 Calma 9 Noroeste 0 1014.8 0.1 86
2019-10-08 23:00:00 20.2 6 Oeste 11 Oeste 0 1014.6 0 79
2019-10-08 22:00:00 20.7 7 Oeste 9 Oeste 0 1014.4 -0.1 77
2019-10-08 21:00:00 20.7 8 Oeste 9 Oeste 0 1014.7 0.2 78
2019-10-08 20:00:00 21.6 5 Sur 17 Sur 0 1014.6 -0.2 76
2019-10-08 19:00:00 23.1 12 Sur 22 Sudeste 0 1014.5 -0.6 70
2019-10-08 18:00:00 24.1 13 Sur 26 Sur 0 1014.5 -0.8 65
2019-10-08 17:00:00 24.7 15 Sur 28 Sur 0 1014.8 -1.2 62
2019-10-08 16:00:00 25.1 15 Sur 28 Sur 0 1015.1 -1.6 62
2019-10-08 15:00:00 25.5 17 Sur 28 Sur 0 1015.3 -2 64
2019-10-08 14:00:00 25.6 14 Sur 28 Sur 0 1016 -1.2 64
2019-10-08 13:00:00 25.3 13 Sur 21 Sur 0 1016.7 -0.1 62
2019-10-08 12:00:00 24.7 10 Sudoeste 17 Sudoeste 0 1017.3 0.8 67
2019-10-08 11:00:00 24.4 6 Sur 13 Sur 0 1017.2 1.1 69
2019-10-08 10:00:00 22.6 0 Calma 9 Noroeste 0 1016.8 1.1 74
2019-10-08 09:00:00 20 5 Norte 11 Norte 0 1016.5 1.1 84
2019-10-08 08:00:00 19.3 4 Noroeste 11 Norte 0 1016.1 0.9 85
2019-10-08 07:00:00 19.2 4 Norte 9 Norte 0 1015.7 0.5 86
2019-10-08 06:00:00 19.6 0 Calma 5 Norte 0 1015.4 0.2 84
2019-10-08 05:00:00 20.2 2 Noroeste 8 Noroeste 0 1015.2 0.2 81
2019-10-08 04:00:00 19.2 2 Noroeste 8 Noroeste 0 1015.2 0 84
2019-10-08 03:00:00 19 6 Noroeste 9 Noroeste 0 1015.2 0.1 84
2019-10-08 02:00:00 19.2 6 Noroeste 8 Noroeste 0 1015 -0.1 82
2019-10-08 01:00:00 19.4 3 Noroeste 8 Noroeste 0 1015.2 0.7 84
2019-10-08 00:00:00 21.6 0 Calma 9 Nordeste 0 1015.1 1 72
2019-10-07 23:00:00 22.2 3 Norte 5 Noroeste 0 1015.1 1.5 69
2019-10-07 22:00:00 22.3 0 Calma 4 Oeste 0 1014.5 1.2 68
2019-10-07 21:00:00 22.1 0 Calma 8 Este 0 1014.1 1.3 69
2019-10-07 20:00:00 22.4 5 Este 11 Este 0 1013.6 1.1 69
2019-10-07 19:00:00 22.5 9 Este 21 Este 0 1013.3 0.7 69
2019-10-07 18:00:00 23.7 15 Este 28 Este 0 1012.8 0.5 64
2019-10-07 17:00:00 23.3 19 Este 33 Este 0 1012.5 0.2 67
2019-10-07 16:00:00 24.5 22 Este 33 Este 0 1012.6 0.1 72
2019-10-07 15:00:00 25.7 21 Este 30 Sudeste 0 1012.3 0.2 71
2019-10-07 14:00:00 26.2 17 Sudeste 35 Este 0 1012.3 -0.1 66
2019-10-07 13:00:00 27.6 13 Sudeste 24 Sur 0 1012.5 0.3 48
2019-10-07 12:00:00 27 12 Oeste 24 Sudoeste 0 1012.1 0.2 42
2019-10-07 11:00:00 25.9 13 Sudoeste 18 Sudoeste 0 1012.4 0.8 39
2019-10-07 10:00:00 22.7 7 Sudoeste 13 Sudoeste 0 1012.2 1.1 53
2019-10-07 09:00:00 19.1 9 Oeste 13 Oeste 0 1011.9 0.7 86
2019-10-07 08:00:00 19.4 6 Noroeste 11 Noroeste 0 1011.6 0.2 97
2019-10-07 07:00:00 19.8 9 Noroeste 15 Norte 0 1011.1 -0.6 96
2019-10-07 06:00:00 20.5 9 Norte 17 Norte 0 1011.2 -0.6 95
2019-10-07 05:00:00 20.2 9 Norte 17 Norte 0 1011.4 -0.7 94
2019-10-07 04:00:00 19.8 3 Norte 18 Nordeste 0 1011.7 -1.1 88
2019-10-07 03:00:00 19.1 13 Sudoeste 17 Sudoeste 0 1011.8 -1.5 96
2019-10-07 02:00:00 19.5 14 Sudoeste 18 Sudoeste 0 1012.1 -1.5 94
2019-10-07 01:00:00 19.7 9 Oeste 13 Sudoeste 0 1012.8 -0.7 94
2019-10-07 00:00:00 20.4 7 Oeste 11 Oeste 0 1013.3 0.1 94
2019-10-06 23:00:00 20.6 9 Oeste 11 Oeste 0 1013.6 0.8 95
2019-10-06 22:00:00 21.6 8 Oeste -- -- 0 1013.5 0.5 92
2019-10-06 21:00:00 22.1 5 Oeste -- -- 0 1013.2 0.4 90
2019-10-06 20:00:00 22.2 4 Sur 11 Sudeste 0 1012.8 -0.5 89
2019-10-06 19:00:00 23.7 7 Este 15 Este 0 1013 -0.8 80
2019-10-06 18:00:00 24.2 8 Sudeste 22 Norte 0 1012.8 -1.1 77
2019-10-06 17:00:00 24.5 12 Este 24 Sudeste 0 1013.3 -1.3 78
2019-10-06 16:00:00 25.7 12 Sudeste 22 Sudeste 0 1013.8 -1 70
2019-10-06 15:00:00 25.1 13 Este 22 Este 0 1013.9 -0.8 75
2019-10-06 14:00:00 24.9 12 Este 24 Este 0 1014.6 0.2 75
2019-10-06 13:00:00 25.3 12 Este 21 Norte 0 1014.8 0.7 72
2019-10-06 12:00:00 24.4 6 Sudeste 13 Sudeste 0 1014.7 0.9 73
2019-10-06 11:00:00 24 4 Este 9 Sudeste 0 1014.4 1.1 75
2019-10-06 10:00:00 22 5 Nordeste 11 Norte 0 1014.1 0.9 83
2019-10-06 09:00:00 18.3 5 Norte 11 Noroeste 0 1013.8 0.9 92
2019-10-06 08:00:00 16.6 4 Noroeste 9 Noroeste 0 1013.3 0.7 94
2019-10-06 07:00:00 16 3 Oeste 9 Oeste 0 1013.2 0.4 96
2019-10-06 06:00:00 16.9 4 Noroeste 8 Oeste 0 1012.9 0.1 94
2019-10-06 05:00:00 18.1 4 Noroeste -- -- 0 1012.6 -0.1 89
2019-10-06 04:00:00 17.2 6 Oeste 9 Sudoeste 0 1012.8 0.1 94
2019-10-06 03:00:00 18.1 2 Oeste 11 Oeste 0 1012.8 0 93
2019-10-06 02:00:00 17.9 6 Oeste 13 Oeste 0 1012.7 -0.2 95
2019-10-06 01:00:00 18.9 10 Oeste 11 Oeste 0 1012.7 0 93
2019-10-06 00:00:00 20.4 4 Oeste 11 Noroeste 0 1012.8 0.7 90
2019-10-05 23:00:00 20.6 6 Oeste 9 Oeste 0 1012.9 1 91
2019-10-05 22:00:00 20.7 6 Oeste 8 Oeste 0 1012.7 1.2 90
2019-10-05 21:00:00 22.4 0 Calma 8 Sudeste 0 1012.1 0.7 86
2019-10-05 20:00:00 22 5 Sudeste 13 Este 0 1011.9 0.3 87
2019-10-05 19:00:00 23.3 9 Este 21 Este 0 1011.5 -0.1 81
2019-10-05 18:00:00 24.5 13 Este 24 Sudeste 0 1011.4 -0.3 77
2019-10-05 17:00:00 24.8 13 Este 24 Este 0 1011.6 -0.6 75
2019-10-05 16:00:00 25.3 15 Este 28 Este 0 1011.6 -0.9 73
2019-10-05 15:00:00 25.2 14 Este 24 Este 0 1011.7 -0.5 68
2019-10-05 14:00:00 25.4 14 Este 24 Este 0 1012.2 0.3 65
2019-10-05 13:00:00 25.9 13 Este 22 Nordeste 0 1012.5 1 59
2019-10-05 12:00:00 25.6 14 Este 21 Este 0 1012.2 1.3 60
2019-10-05 11:00:00 24.7 12 Nordeste 21 Nordeste 0 1011.9 1.5 67
2019-10-05 10:00:00 23.6 10 Nordeste 21 Norte 0 1011.5 1.3 69
2019-10-05 09:00:00 19.2 10 Norte 18 Norte 0 1010.9 0.6 72
2019-10-05 08:00:00 17.8 8 Norte 13 Norte 0 1010.4 0 67
2019-10-05 07:00:00 16.3 7 Norte 13 Sudoeste 0 1010.2 -0.1 77
2019-10-05 06:00:00 16.8 12 Oeste 15 Oeste 0 1010.3 -0.5 75
2019-10-05 05:00:00 18.2 12 Sudoeste 17 Oeste 0 1010.4 -0.3 69
2019-10-05 04:00:00 18 11 Oeste 15 Oeste 0 1010.3 -0.7 72
2019-10-05 03:00:00 18.5 8 Oeste 13 Noroeste 0 1010.8 -0.5 72
2019-10-05 02:00:00 18 9 Noroeste 11 Oeste 0 1010.7 -0.7 80
2019-10-05 01:00:00 20 5 Oeste 11 Noroeste 0 1011 -0.3 74
2019-10-05 00:00:00 19.6 9 Oeste 13 Noroeste 0 1011.3 0.1 79
2019-10-04 23:00:00 19.8 2 Norte 13 Norte 0 1011.4 0.2 80
2019-10-04 22:00:00 21.5 3 Norte 13 Nordeste 0 1011.3 0.1 72
2019-10-04 21:00:00 22.3 7 Nordeste 11 Norte 0 1011.2 0 71
2019-10-04 20:00:00 23.5 0 Calma 9 Sur 0 1011.2 -0.1 69
2019-10-04 19:00:00 24.8 6 Sur 17 Sur 0 1011.2 -0.6 55
2019-10-04 18:00:00 25.4 9 Sur 18 Sur 0 1011.2 -1.3 56
2019-10-04 17:00:00 26.5 12 Sur 22 Este 0 1011.3 -2.2 62
2019-10-04 16:00:00 27 7 Sur 18 Este 0 1011.8 -2.1 58
2019-10-04 15:00:00 26.6 12 Sudeste 22 Sudeste 0 1012.5 -1.6 53
2019-10-04 14:00:00 26.6 11 Este 18 Este 0 1013.5 -0.6 57
2019-10-04 13:00:00 26.3 8 Este 15 Este 0 1013.9 -0.1 57
2019-10-04 12:00:00 25.6 6 Este 13 Este 0 1014.1 0.5 60
2019-10-04 11:00:00 24.4 5 Este 9 Este 0 1014.1 1.1 66
2019-10-04 10:00:00 22.4 0 Calma 9 Noroeste 0 1014 1 60
2019-10-04 09:00:00 17.8 8 Noroeste 15 Oeste 0 1013.6 0.9 55
2019-10-04 08:00:00 15.9 9 Oeste 15 Norte 0 1013 0.5 68
2019-10-04 07:00:00 15.4 0 Calma 9 Norte 0 1013 0.4 69
2019-10-04 06:00:00 16.2 8 Noroeste 11 Noroeste 0 1012.7 -0.2 59
2019-10-04 05:00:00 14.6 4 Oeste 9 Sudoeste 0 1012.5 -0.5 71
2019-10-04 04:00:00 16.5 5 Oeste 13 Oeste 0 1012.6 -0.8 67
2019-10-04 03:00:00 17.6 10 Noroeste 15 Noroeste 0 1012.9 -0.2 69
2019-10-04 02:00:00 16.6 6 Oeste 15 Oeste 0 1013 -0.2 89
2019-10-04 01:00:00 17.5 7 Oeste 13 Oeste 0 1013.4 0.6 87
2019-10-04 00:00:00 19.7 4 Oeste 13 Norte 0 1013.1 0.6 80
2019-10-03 23:00:00 20.4 6 Noroeste 18 Norte 0 1013.2 1 79
2019-10-03 22:00:00 20.6 12 Norte 21 Nordeste 0 1012.8 0.7 80
2019-10-03 21:00:00 20.6 12 Norte 18 Nordeste 0 1012.5 0.5 82
2019-10-03 20:00:00 21.8 13 Nordeste 21 Nordeste 0 1012.2 0.1 70
2019-10-03 19:00:00 23.7 14 Nordeste 22 Este 0 1012.1 0 60
2019-10-03 18:00:00 24.3 17 Este 30 Este 0 1012 0.1 56
2019-10-03 17:00:00 25 18 Este 33 Este 0 1012.1 -0.5 56
2019-10-03 16:00:00 27 15 Este 35 Norte 0 1012.1 -1.3 46
2019-10-03 15:00:00 29.2 15 Oeste 30 Oeste 0 1011.9 -2 24
2019-10-03 14:00:00 28 10 Oeste 24 Sudoeste 0 1012.6 -1.2 29
2019-10-03 13:00:00 26.3 13 Sudoeste 21 Sudoeste 0 1013.4 -0.3 37
2019-10-03 12:00:00 25.4 11 Oeste 18 Oeste 0 1013.9 0.5 37
2019-10-03 11:00:00 23.5 9 Sudoeste 15 Sudoeste 0 1013.8 0.8 44
2019-10-03 10:00:00 20.3 5 Noroeste 15 Noroeste 0 1013.7 1 55
2019-10-03 09:00:00 16.9 9 Oeste 13 Oeste 0 1013.4 0.9 64
2019-10-03 08:00:00 17.2 8 Oeste 18 Noroeste 0 1013 0.6 60
2019-10-03 07:00:00 17.4 11 Noroeste 15 Noroeste 0 1012.7 0.1 58
2019-10-03 06:00:00 17.5 9 Oeste 15 Noroeste 0 1012.5 -0.3 62
2019-10-03 05:00:00 17 5 Noroeste 15 Oeste 0 1012.4 -0.5 68
2019-10-03 04:00:00 16.6 10 Oeste 17 Sudoeste 0 1012.6 -0.2 83
2019-10-03 03:00:00 18.2 6 Oeste 13 Noroeste 0 1012.8 -0.3 82
2019-10-03 02:00:00 18.7 8 Oeste 17 Noroeste 0 1012.9 -0.2 85
2019-10-03 01:00:00 19.6 12 Noroeste 15 Noroeste 0 1012.8 0.1 82
2019-10-03 00:00:00 19.6 8 Noroeste 13 Noroeste 0 1013.1 0.8 81
2019-10-02 23:00:00 20.2 7 Norte 11 Noroeste 0 1013.1 1.5 78
2019-10-02 22:00:00 21.9 2 Noroeste 8 Noroeste 0 1012.7 1.7 72
2019-10-02 21:00:00 22.8 3 Nordeste 8 Nordeste 0 1012.3 1.8 69
2019-10-02 20:00:00 21.9 3 Sudeste 21 Este 0 1011.6 2 72
2019-10-02 19:00:00 23.6 14 Este 30 Norte 0 1011 1.3 67
2019-10-02 18:00:00 24.5 22 Este 35 Este 0 1010.5 0.7 65
2019-10-02 17:00:00 29.3 19 Este 45 Oeste 0 1009.6 -0.8 25
2019-10-02 16:00:00 29.4 24 Noroeste 42 Noroeste 0 1009.7 -1.2 26
2019-10-02 15:00:00 28.8 29 Oeste 42 Noroeste 0 1009.8 -1.4 29
2019-10-02 14:00:00 28.2 16 Oeste 48 Noroeste 0 1010.4 -0.9 33
2019-10-02 13:00:00 26.9 31 Oeste 42 Oeste 0 1010.9 0.3 36
2019-10-02 12:00:00 25.9 21 Oeste 39 Oeste 0 1011.2 1.7 41
2019-10-02 11:00:00 24.1 25 Oeste 42 Oeste 0 1011.3 2.3 44
2019-10-02 10:00:00 23.6 24 Oeste 39 Oeste 0 1010.6 2.2 45
2019-10-02 09:00:00 22.9 30 Oeste 39 Noroeste 0 1009.5 1.4 46
2019-10-02 08:00:00 21.5 21 Oeste 30 Oeste 0 1009 1.3 49
2019-10-02 07:00:00 21.1 21 Oeste 32 Oeste 0 1008.4 0.6 51
2019-10-02 06:00:00 22.7 23 Oeste 33 Oeste 0 1008.1 0.2 46
2019-10-02 05:00:00 22.6 19 Oeste 26 Oeste 0 1007.7 0.2 47
2019-10-02 04:00:00 23.5 17 Oeste 24 Oeste 0 1007.8 0.2 41
2019-10-02 03:00:00 23.4 19 Oeste 33 Oeste 0 1007.9 0.7 41
2019-10-02 02:00:00 24.1 18 Oeste 28 Oeste 0 1007.5 0.2 36
2019-10-02 01:00:00 23.1 14 Oeste 18 Oeste 0 1007.6 1 37
2019-10-02 00:00:00 22.5 9 Oeste 21 Norte 0 1007.2 1.3 46
2019-10-01 23:00:00 23.9 5 Noroeste 24 Sudoeste 0 1007.3 1.6 49
2019-10-01 22:00:00 23 13 Sudoeste 17 Sudoeste 0 1006.6 1.1 77
2019-10-01 21:00:00 23.8 4 Este 11 Este 0 1005.9 0.7 89
2019-10-01 20:00:00 24.7 8 Este 15 Norte 0 1005.7 0.4 86
2019-10-01 19:00:00 27.1 6 Este 13 Este 0 1005.5 -0.2 73
2019-10-01 18:00:00 28.6 5 Sur 18 Sur 0 1005.2 -1.2 65
2019-10-01 17:00:00 28.4 11 Sudoeste 28 Sur 0 1005.3 -1.9 70
2019-10-01 16:00:00 28.4 16 Sur 26 Sur 0 1005.7 -2.3 69
2019-10-01 15:00:00 28.9 13 Sur 22 Sur 0 1006.4 -2.4 66
2019-10-01 14:00:00 28.6 14 Sudoeste 26 Sudoeste 0 1007.2 -2.1 59
2019-10-01 13:00:00 27.1 19 Sudoeste 28 Sudoeste 0 1008 -1 65
2019-10-01 12:00:00 25.1 14 Sudoeste 21 Sudoeste 0 1008.8 -0.1 73
2019-10-01 11:00:00 23.2 15 Sudoeste 22 Sudoeste 0 1009.3 0.2 80
2019-10-01 10:00:00 21.7 9 Oeste 17 Oeste 0 1009 -0.3 77
2019-10-01 09:00:00 19.4 8 Sudoeste 13 Oeste 0 1008.9 -0.5 91
2019-10-01 08:00:00 18.2 9 Oeste 11 Oeste 0 1009.1 -0.7 96
2019-10-01 07:00:00 18.2 7 Oeste 13 Oeste 0 1009.3 -1.1 95
2019-10-01 06:00:00 18.2 7 Oeste 9 Oeste 0 1009.4 -1.5 97
2019-10-01 05:00:00 19.4 5 Oeste 9 Oeste 0 1009.8 -1.6 96
2019-10-01 04:00:00 19.5 10 Oeste 13 Oeste 0 1010.4 -1.4 97
2019-10-01 03:00:00 20.2 4 Noroeste -- -- 0 1010.9 -1.3 96
2019-10-01 02:00:00 20.6 5 Oeste 8 Oeste 0 1011.4 -0.8 96
2019-10-01 01:00:00 21.4 4 Oeste 8 Oeste 0 1011.8 -0.1 93
2019-10-01 00:00:00 21.5 4 Oeste 5 Oeste 0 1012.2 0.5 93
2019-09-30 23:00:00 21.4 5 Sudoeste -- -- 0 1012.2 0.6 93
2019-09-30 22:00:00 22.3 4 Sudoeste 9 Norte 0 1011.9 0.4 90
2019-09-30 21:00:00 23.1 0 Calma 8 Este 0 1011.7 0.1 87
2019-09-30 20:00:00 23.1 7 Este 15 Este 0 1011.6 -0.2 87
2019-09-30 19:00:00 23.9 11 Este 21 Este 0 1011.5 -0.7 84
2019-09-30 18:00:00 24.8 12 Este 22 Este 0 1011.6 -1 80
2019-09-30 17:00:00 25.8 12 Este 22 Este 0 1011.8 -1.3 77
2019-09-30 16:00:00 25.2 13 Este 22 Este 0 1012.2 -1.4 80
2019-09-30 15:00:00 25.7 13 Este 22 Este 0 1012.6 -0.9 77
2019-09-30 14:00:00 26.2 12 Este 22 Este 0 1013.1 0 74
2019-09-30 13:00:00 26.6 13 Este 18 Este 0 1013.6 0.8 67
2019-09-30 12:00:00 26.4 7 Sur 13 Sudeste 0 1013.5 1.2 62
2019-09-30 11:00:00 24.3 9 Sudoeste 15 Sudoeste 0 1013.1 1.1 65
2019-09-30 10:00:00 22.1 9 Sudoeste 13 Sudoeste 0 1012.8 0.9 76
2019-09-30 09:00:00 18.8 5 Sudoeste 13 Sudoeste 0 1012.3 0.4 88
2019-09-30 08:00:00 17.6 10 Sudoeste 15 Oeste 0 1012 -0.1 91
2019-09-30 07:00:00 17.6 12 Sudoeste 17 Oeste 0 1011.9 -0.7 94
2019-09-30 06:00:00 18.6 12 Sudoeste 13 Sudoeste 0 1011.9 -1 90
2019-09-30 05:00:00 18 11 Oeste 13 Oeste 0 1012.1 -0.9 96
2019-09-30 04:00:00 18.7 12 Oeste 13 Oeste 0 1012.6 -0.4 98
2019-09-30 03:00:00 19.9 10 Oeste 11 Oeste 0 1012.9 -0.3 97
2019-09-30 02:00:00 20 8 Oeste 9 Oeste 0 1013 -0.2 96
2019-09-30 01:00:00 20.1 6 Sudoeste -- -- 0 1013 -0.3 95
2019-09-30 00:00:00 23 3 Sur 11 Norte 0 1013.2 0.3 87
2019-09-29 23:00:00 21.5 5 Norte 9 Norte 0 1013.2 0.7 91
2019-09-29 22:00:00 23 6 Norte 13 Norte 0 1013.3 0.9 88
2019-09-29 21:00:00 23.3 5 Este 5 Este 0 1012.9 0.4 89
2019-09-29 20:00:00 23.5 0 Calma 11 Sudoeste 0 1012.5 -0.3 89
2019-09-29 19:00:00 24.9 9 Sur 18 Sur 0 1012.4 -0.8 80
2019-09-29 18:00:00 26.5 12 Sur 21 Sur 0 1012.5 -1.3 75
2019-09-29 17:00:00 27.3 12 Sur 22 Sur 0 1012.8 -1.6 71
2019-09-29 16:00:00 27.2 13 Sur 22 Sur 0 1013.2 -1.6 69
2019-09-29 15:00:00 27.4 14 Sur 26 Sur 0 1013.8 -1.3 65
2019-09-29 14:00:00 28 12 Sudoeste 24 Sur 0 1014.4 -0.6 57
2019-09-29 13:00:00 26.8 12 Sudoeste 22 Sudoeste 0 1014.8 0.1 61
2019-09-29 12:00:00 25.4 12 Sudoeste 21 Sudoeste 0 1015.1 0.5 65
2019-09-29 11:00:00 23.8 11 Sudoeste 15 Sudoeste 0 1015 0.6 65
2019-09-29 10:00:00 21.5 11 Oeste 17 Oeste 0 1014.7 0.3 76
2019-09-29 09:00:00 19 13 Oeste 18 Oeste 0 1014.6 -0.2 84
2019-09-29 08:00:00 17.9 11 Oeste 17 Oeste 0 1014.4 -0.5 91
2019-09-29 07:00:00 18.6 13 Noroeste 18 Noroeste 0 1014.4 -0.8 90
2019-09-29 06:00:00 19.1 11 Noroeste 15 Noroeste 0 1014.8 -0.8 92
2019-09-29 05:00:00 19.1 10 Noroeste 11 Noroeste 0 1014.9 -0.8 96
2019-09-29 04:00:00 19.4 7 Oeste 9 Oeste 0 1015.2 -0.7 96
2019-09-29 03:00:00 19.9 6 Oeste -- -- 0 1015.6 -0.3 95
2019-09-29 02:00:00 20.2 7 Noroeste 9 Noroeste 0 1015.7 -0.2 97
2019-09-29 01:00:00 20.7 5 Noroeste 13 Norte 0 1015.9 0.4 95
2019-09-29 00:00:00 21.8 7 Norte 15 Norte 0 1015.9 0.5 92
2019-09-28 23:00:00 22.8 6 Norte 13 Este 0 1015.9 0.7 88
2019-09-28 22:00:00 23.1 10 Nordeste 17 Este 0 1015.5 0.2 87
2019-09-28 21:00:00 23.2 8 Nordeste 17 Este 0 1015.4 -0.1 87
2019-09-28 20:00:00 23.1 12 Este 18 Este 0 1015.2 -0.4 89
2019-09-28 19:00:00 23.7 13 Nordeste 18 Este 0 1015.3 -0.7 86
2019-09-28 18:00:00 24.3 11 Este 22 Norte 0 1015.5 -0.9 83
2019-09-28 17:00:00 24.9 12 Este 21 Este 0 1015.6 -1.3 80
2019-09-28 16:00:00 25.3 13 Este 22 Este 0 1016 -1.3 78
2019-09-28 15:00:00 25.4 13 Este 24 Este 0 1016.4 -1 77
2019-09-28 14:00:00 25.5 16 Este 24 Este 0 1016.9 -0.3 78
2019-09-28 13:00:00 25.3 13 Este 24 Este 0 1017.3 1 78
2019-09-28 12:00:00 24.7 17 Este 26 Este 0 1017.4 2 83
2019-09-28 11:00:00 24.2 12 Este 21 Este 0 1017.2 2.6 86
2019-09-28 10:00:00 23.5 9 Nordeste 18 Nordeste 0 1016.3 2.1 81
2019-09-28 09:00:00 21 9 Nordeste 17 Norte 0 1015.4 1.5 84
2019-09-28 08:00:00 17.9 7 Norte 13 Norte 0 1014.6 0.6 95
2019-09-28 07:00:00 18.1 3 Norte 9 Oeste 0 1014.2 -0.2 95
2019-09-28 06:00:00 18.8 8 Oeste -- -- 0 1013.9 -0.9 94
2019-09-28 05:00:00 19.2 9 Oeste 11 Oeste 0 1014 -1 98
2019-09-28 04:00:00 19 7 Oeste 11 Oeste 0 1014.4 -0.7 96
2019-09-28 03:00:00 19.3 8 Oeste -- -- 0 1014.8 -0.5 96
2019-09-28 02:00:00 19.7 6 Oeste 9 Oeste 0 1015 0.1 96
2019-09-28 01:00:00 20.7 6 Oeste 9 Oeste 0 1015.1 0.6 94
2019-09-28 00:00:00 21.2 4 Oeste 9 Norte 0 1015.3 1.3 94
2019-09-27 23:00:00 21.4 5 Noroeste 9 Norte 0 1014.9 1.3 93
2019-09-27 22:00:00 22.8 0 Calma 2 Sudoeste 0 1014.5 1.2 89
2019-09-27 21:00:00 22.7 0 Calma 8 Sur 0 1014 1 89
2019-09-27 20:00:00 23.2 5 Sur 11 Sur 0 1013.6 0.4 87
2019-09-27 19:00:00 24.7 8 Sur 13 Sudeste 0 1013.3 -0.1 77
2019-09-27 18:00:00 26.1 8 Sur 15 Sur 0 1013 -0.9 69
2019-09-27 17:00:00 26.5 8 Sur 21 Sur 0 1013.2 -1 69
2019-09-27 16:00:00 27.1 12 Sur 24 Sur 0 1013.4 -0.9 65
2019-09-27 15:00:00 27 13 Sur 22 Sur 0 1013.9 -0.9 72
2019-09-27 14:00:00 28.1 12 Sur 21 Sur 0 1014.2 -0.8 65
2019-09-27 13:00:00 27.3 13 Sudoeste 22 Sur 0 1014.3 -0.6 64
2019-09-27 12:00:00 26.1 12 Sur 18 Sudoeste 0 1014.8 0 65
2019-09-27 11:00:00 24.8 8 Sudoeste 15 Sudoeste 0 1015 0.4 73
2019-09-27 10:00:00 22.3 8 Sudoeste 15 Sudoeste 0 1014.9 0.5 77
2019-09-27 09:00:00 19.7 10 Sudoeste 13 Sudoeste 0 1014.8 0.5 86
2019-09-27 08:00:00 18 10 Oeste 17 Oeste 0 1014.6 0.3 94
2019-09-27 07:00:00 18.1 14 Oeste 18 Oeste 0 1014.4 -0.3 92
2019-09-27 06:00:00 18.2 11 Oeste 13 Oeste 0 1014.3 -0.9 94
2019-09-27 05:00:00 19.1 9 Noroeste 11 Noroeste 0 1014.3 -1.2 93
2019-09-27 04:00:00 19.2 6 Noroeste 11 Oeste 0 1014.7 -1 96
2019-09-27 03:00:00 19.6 -- -- -- -- 0 1015.2 -0.6 97
2019-09-27 02:00:00 -- 8 Oeste 13 Oeste 0 1015.5 -0.2 --
2019-09-27 01:00:00 20.7 6 Noroeste 11 Noroeste 0 1015.7 0.3 96
2019-09-27 00:00:00 22.2 7 Oeste 9 Oeste 0 1015.8 0.9 91
2019-09-26 23:00:00 22 4 Oeste 5 Oeste 0 1015.7 1.1 92
2019-09-26 22:00:00 23 0 Calma -- -- 0 1015.4 1.1 90
2019-09-26 21:00:00 22.8 0 Calma 8 Sudeste 0 1014.9 0.7 91
2019-09-26 20:00:00 23 5 Este 13 Este 0 1014.6 0 89
2019-09-26 19:00:00 24.6 10 Sudeste 18 Sudeste 0 1014.3 -0.6 77
2019-09-26 18:00:00 25.9 11 Sudeste 17 Sudeste 0 1014.2 -0.9 68
2019-09-26 17:00:00 26 12 Este 21 Norte 0 1014.6 -1.1 71
2019-09-26 16:00:00 26.5 12 Este 21 Este 0 1014.9 -1.4 69
2019-09-26 15:00:00 26 12 Este 22 Este 0 1015.1 -1.3 74
2019-09-26 14:00:00 26 12 Este 21 Este 0 1015.7 -0.7 68
2019-09-26 13:00:00 26 13 Este 22 Este 0 1016.3 0.3 69
2019-09-26 12:00:00 25.4 10 Este 22 Este 0 1016.4 1.1 73
2019-09-26 11:00:00 24.2 9 Este 17 Este 0 1016.4 1.6 79
2019-09-26 10:00:00 23.9 8 Nordeste 15 Norte 0 1016 1.7 73
2019-09-26 09:00:00 20.2 4 Noroeste 13 Norte 0 1015.3 1.1 91
2019-09-26 08:00:00 18.7 5 Oeste 9 Oeste 0 1014.8 0.8 93
2019-09-26 07:00:00 18.7 5 Oeste 9 Oeste 0 1014.3 0.6 92
2019-09-26 06:00:00 19 5 Noroeste 8 Oeste 0 1014.2 0.5 90
2019-09-26 05:00:00 19.3 3 Oeste 8 Norte 0 1014 0.2 90
2019-09-26 04:00:00 20.5 5 Norte 8 Norte 0 1013.7 -0.2 85
2019-09-26 03:00:00 20.2 7 Noroeste 11 Norte 0 1013.7 0 91
2019-09-26 02:00:00 20.4 9 Noroeste 13 Norte 0 1013.8 0.2 90
2019-09-26 01:00:00 20.7 5 Oeste 13 Norte 0 1013.9 0.5 93
2019-09-26 00:00:00 21.2 6 Noroeste 13 Norte 0 1013.7 0.9 93
2019-09-25 23:00:00 22.4 5 Norte 13 Norte 0 1013.6 1.2 88
2019-09-25 22:00:00 22.7 6 Nordeste 17 Este 0 1013.4 -- 90
2019-09-25 21:00:00 23 9 Nordeste 22 Este 0 1012.8 1.1 88
2019-09-25 20:00:00 23.5 16 Este 24 Este 0 1012.4 0.9 84
2019-09-25 19:00:00 -- -- -- -- -- -- -- -- --
2019-09-25 18:00:00 24.9 23 Este 37 Este 0 1011.7 1.1 79
2019-09-25 17:00:00 26 24 Este 45 Este 0 1011.5 0.6 72
2019-09-25 16:00:00 29 19 Sur 28 Sur 0 1010.5 -1.1 58
2019-09-25 15:00:00 30.9 14 Oeste 35 Noroeste 0 1010.6 -1.4 37
2019-09-25 14:00:00 30.3 23 Noroeste 35 Noroeste 0 1010.9 -1 41
2019-09-25 13:00:00 29.6 25 Noroeste 45 Noroeste 0 1011.6 0.2 45
2019-09-25 12:00:00 28.2 23 Noroeste 41 Oeste 0 1012 1 48
2019-09-25 11:00:00 26.9 23 Noroeste 35 Noroeste 0 1011.9 1.3 52
2019-09-25 10:00:00 25 18 Noroeste 33 Oeste 0 1011.4 1.1 58
2019-09-25 09:00:00 24.2 23 Noroeste 41 Noroeste 0 1011 1 58
2019-09-25 08:00:00 22.7 14 Oeste 32 Sudoeste 0 1010.6 0.7 61
2019-09-25 07:00:00 22.5 7 Oeste 17 Sudoeste 0 1010.3 0 60
2019-09-25 06:00:00 22.1 9 Sudoeste 15 Sudoeste 0 1010 -0.6 59
2019-09-25 05:00:00 24.5 10 Noroeste 24 Oeste 0 1009.9 -0.7 48
2019-09-25 04:00:00 21.4 11 Sudoeste 17 Oeste 0 1010.3 -0.6 56
2019-09-25 03:00:00 21.7 9 Oeste 18 Noroeste 0 1010.6 -0.7 56
2019-09-25 02:00:00 20.4 9 Oeste 15 Oeste 0 1010.6 -0.9 73
2019-09-25 01:00:00 20.6 12 Oeste 15 Oeste 0 1010.9 -0.5 85
2019-09-25 00:00:00 21.7 4 Oeste 8 Oeste 0 1011.3 0.2 83
2019-09-24 23:00:00 21.9 6 Oeste 11 Norte 0 1011.5 0.8 84
2019-09-24 22:00:00 22 4 Noroeste 13 Norte 0 1011.4 0.9 85
2019-09-24 21:00:00 22.8 0 Calma 11 Oeste 0 1011.1 0.5 83
2019-09-24 20:00:00 24.9 8 Sudoeste 24 Sur 0 1010.7 -0.4 73
2019-09-24 19:00:00 26.8 14 Sur 32 Sur 0 1010.5 -1.1 67
2019-09-24 18:00:00 27.4 21 Sur 35 Sur 0 1010.6 -1.6 65
2019-09-24 17:00:00 28 20 Sur 37 Sur 0 1011.1 -2.1 61
2019-09-24 16:00:00 29.2 17 Sur 30 Sur 0 1011.6 -2.6 56
2019-09-24 15:00:00 30.9 16 Sur 28 Sudoeste 0 1012.2 -2.3 38
2019-09-24 14:00:00 29.2 16 Sudoeste 26 Sudoeste 0 1013.2 -1.7 45
2019-09-24 13:00:00 27.8 16 Sudoeste 26 Sudoeste 0 1014.2 -0.4 49
2019-09-24 12:00:00 26.2 16 Sudoeste 26 Sudoeste 0 1014.5 0.3 57
2019-09-24 11:00:00 24.1 15 Sudoeste 21 Sudoeste 0 1014.9 0.6 67
2019-09-24 10:00:00 22.6 10 Sudoeste 18 Sudoeste 0 1014.6 0.4 70
2019-09-24 09:00:00 19.2 13 Sudoeste 17 Sudoeste 0 1014.2 0.1 81
2019-09-24 08:00:00 17.3 12 Oeste 17 Oeste 0 1014.3 0.2 86
2019-09-24 07:00:00 17.6 14 Sudoeste 17 Oeste 0 1014.2 -0.4 89
2019-09-24 06:00:00 18.2 12 Sudoeste 15 Sudoeste 0 1014.1 -1.3 86
2019-09-24 05:00:00 18.5 13 Oeste 15 Oeste 0 1014.1 -1.7 89
2019-09-24 04:00:00 19 10 Oeste 13 Oeste 0 1014.6 -1.4 88
2019-09-24 03:00:00 19 7 Noroeste 11 Oeste 0 1015.4 -0.9 90
2019-09-24 02:00:00 19.5 8 Noroeste 11 Noroeste 0 1015.8 -0.5 89
2019-09-24 01:00:00 19.7 7 Oeste 11 Oeste 0 1016 -0.2 90
2019-09-24 00:00:00 21.5 7 Oeste 11 Noroeste 0 1016.3 0.6 81
2019-09-23 23:00:00 22 0 Calma -- -- 0 1016.3 1.2 80
2019-09-23 22:00:00 21.3 6 Sudoeste 8 Oeste 0 1016.2 1.1 84
2019-09-23 21:00:00 22.3 4 Sudoeste -- -- 0 1015.7 0.8 80
2019-09-23 20:00:00 22.8 6 Sudeste 9 Este 0 1015.1 0.3 77
2019-09-23 19:00:00 23.9 8 Este 15 Este 0 1015.1 0.3 72
2019-09-23 18:00:00 24.6 11 Este 21 Sudeste 0 1014.9 0.1 67
2019-09-23 17:00:00 25.7 15 Sudeste 24 Sudeste 0 1014.8 -0.4 63
2019-09-23 16:00:00 26.7 15 Sudeste 28 Sudeste 0 1014.8 -0.6 55
2019-09-23 15:00:00 27.7 17 Sudeste 32 Este 0 1014.8 -0.9 52
2019-09-23 14:00:00 27.2 16 Este 24 Este 0 1015.2 -0.8 51
2019-09-23 13:00:00 28.4 10 Sudeste 21 Este 0 1015.4 0.1 46
2019-09-23 12:00:00 26.8 8 Sudoeste 17 Oeste 0 1015.7 0.7 50
2019-09-23 11:00:00 24.8 12 Oeste 17 Oeste 0 1016 1.8 49
2019-09-23 10:00:00 22.6 10 Noroeste 18 Oeste 0 1015.3 1.7 56
2019-09-23 09:00:00 21.3 9 Oeste 22 Oeste 0 1015 -- 57
2019-09-23 08:00:00 20.7 13 Noroeste 24 Oeste 0 1014.2 -- 58
2019-09-23 07:00:00 20.6 16 Noroeste -- -- -- 1013.6 -- 58
2019-09-23 06:00:00 -- -- -- -- -- -- -- -- --
2019-09-23 05:00:00 -- -- -- -- -- -- -- -- --
2019-09-23 04:00:00 -- -- -- -- -- -- -- -- --
2019-09-23 03:00:00 24.2 18 Noroeste 26 Noroeste 0 1012.4 0.4 49
2019-09-23 02:00:00 24.5 7 Noroeste 18 Norte 0 1012.4 0.8 53
2019-09-23 01:00:00 24.3 10 Noroeste 26 Noroeste 0 1012.4 1.3 59
2019-09-23 00:00:00 23.1 8 Noroeste 13 Noroeste 0 1012 1.4 84
2019-09-22 23:00:00 24.3 6 Nordeste 13 Norte 0 1011.6 2.1 82
2019-09-22 22:00:00 24.5 3 Norte 9 Norte 0 1011.1 1.9 83
2019-09-22 21:00:00 24.3 3 Nordeste 8 Nordeste 0 1010.6 1.5 86
2019-09-22 20:00:00 24.4 2 Este 13 Sur 0 1009.5 0.7 86
2019-09-22 19:00:00 25.9 9 Sur 21 Sur 0 1009.2 0.3 74
2019-09-22 18:00:00 26.8 10 Sur 18 Sur 0 1009.1 0.3 68
2019-09-22 17:00:00 27.1 9 Sur 18 Sudeste 0 1008.8 -0.4 74
2019-09-22 16:00:00 26.9 13 Sur 21 Sur 0 1008.9 -0.4 77
2019-09-22 15:00:00 28 13 Sur 24 Este 0 1008.8 -0.7 73
2019-09-22 14:00:00 27.4 14 Este 22 Este 0 1009.2 -0.3 72
2019-09-22 13:00:00 27.7 17 Este 24 Este 0 1009.3 -0.1 73
2019-09-22 12:00:00 28.4 8 Noroeste 18 Oeste 0 1009.5 0.6 56
2019-09-22 11:00:00 26.6 10 Noroeste 18 Noroeste 0 1009.5 0.6 66
2019-09-22 10:00:00 24.7 8 Sudoeste 13 Oeste 0 1009.4 0.5 79
2019-09-22 09:00:00 22.5 0 Calma 17 Norte 0 1008.9 0.5 89
2019-09-22 08:00:00 21.6 13 Noroeste 18 Noroeste 0 1008.9 0.5 95
2019-09-22 07:00:00 21.3 9 Oeste 15 Noroeste 0 1008.9 0.2 96
2019-09-22 06:00:00 20.8 8 Sudoeste 9 Sudoeste 0 1008.4 -0.6 97
2019-09-22 05:00:00 21.7 4 Oeste 9 Oeste 0 1008.4 -0.7 94
2019-09-22 04:00:00 21.9 6 Sudoeste 11 Sur 0 1008.7 -0.8 94
2019-09-22 03:00:00 22 0 Calma 8 Sur 0 1009 -0.6 96
2019-09-22 02:00:00 22.6 6 Sudoeste 11 Sudoeste 0 1009.1 -0.2 92
2019-09-22 01:00:00 22.8 8 Sudoeste 9 Sudoeste 0 1009.5 0.4 93
2019-09-22 00:00:00 23.7 6 Oeste 8 Oeste 0 1009.6 0.5 87
2019-09-21 23:00:00 24.1 0 Calma 13 Sur 0 1009.3 0.6 86
2019-09-21 22:00:00 23.8 3 Sur 22 Norte 0 1009.1 0.6 90
2019-09-21 21:00:00 24.3 5 Sudoeste 17 Sur 0 1009.1 0.9 85
2019-09-21 20:00:00 24.6 10 Sur 26 Sur 0 1008.7 0.7 86
2019-09-21 19:00:00 25.1 15 Sur 24 Sudoeste 0 1008.5 0.4 86
2019-09-21 18:00:00 26.1 15 Sur 24 Sur 0 1008.2 -0.4 75
2019-09-21 17:00:00 26.8 15 Sur 26 Sur 0 1008 -1 72
2019-09-21 16:00:00 27.9 16 Sur 28 Sur 0 1008.1 -1.4 69
2019-09-21 15:00:00 28.3 16 Sur 26 Sur 0 1008.6 -1.5 66
2019-09-21 14:00:00 28.2 15 Sudoeste 26 Sur 0 1009 -1.1 61
2019-09-21 13:00:00 27.5 14 Sudoeste 24 Sudoeste 0 1009.5 -0.1 64
2019-09-21 12:00:00 26.5 16 Sudoeste 24 Sudoeste 0 1010.1 0.7 68
2019-09-21 11:00:00 25.5 15 Sudoeste 22 Oeste 0 1010.1 1.1 71
2019-09-21 10:00:00 24 14 Oeste 18 Oeste 0 1009.6 0.5 73
2019-09-21 09:00:00 22 10 Oeste 17 Oeste 0 1009.4 0.4 82
2019-09-21 08:00:00 21.8 8 Oeste 15 Noroeste 0 1009 -0.1 83
2019-09-21 07:00:00 21.5 10 Noroeste 13 Noroeste 0 1009.1 -0.2 87
2019-09-21 06:00:00 21.7 7 Norte 11 Norte 0 1009 -1.3 87
2019-09-21 05:00:00 22.6 9 Nordeste 15 Norte 0 1009.1 -2.1 84
2019-09-21 04:00:00 22.6 12 Norte 17 Norte 0 1009.3 -1.5 86
2019-09-21 03:00:00 23.2 9 Norte 15 Norte 0 1010.3 -0.4 87
2019-09-21 02:00:00 23.4 12 Nordeste 22 Este 0 1011.2 0.3 90
2019-09-21 01:00:00 23.2 17 Nordeste 28 Nordeste 0 1010.8 -1.2 88
2019-09-21 00:00:00 23.2 18 Nordeste 32 Este 0 1010.7 -1 90
2019-09-20 23:00:00 23.2 22 Este 39 Este 0 1010.9 -0.6 89
2019-09-20 22:00:00 23.2 14 Nordeste 22 Este 0 1012 0.6 90
2019-09-20 21:00:00 23.3 17 Este 32 Nordeste 0 1011.7 0.2 90
2019-09-20 20:00:00 23.6 21 Este 33 Este 0 1011.5 -0.2 88
2019-09-20 19:00:00 24 23 Este 35 Este 0 1011.4 -1 87
2019-09-20 18:00:00 24.2 24 Este 37 Este 0 1011.5 -1.5 83
2019-09-20 17:00:00 24.4 23 Este 33 Nordeste 0 1011.7 -1.6 83
2019-09-20 16:00:00 25.1 23 Nordeste 37 Este 0 1012.4 -0.9 80
2019-09-20 15:00:00 25 25 Este 39 Este 0 1013 -0.5 80
2019-09-20 14:00:00 25.3 25 Este 39 Este 0 1013.3 -0.1 81
2019-09-20 13:00:00 25.1 30 Este 39 Este 0 1013.3 0.2 82
2019-09-20 12:00:00 25.1 29 Este 39 Este 0 1013.5 0.7 80
2019-09-20 11:00:00 24.7 25 Este 33 Este 0 1013.4 0.2 78
2019-09-20 10:00:00 24 13 Nordeste 24 Nordeste 0 1013.1 -0.4 76
2019-09-20 09:00:00 22.7 13 Norte 21 Nordeste 0 1012.8 -0.9 80
2019-09-20 08:00:00 21.6 10 Norte 17 Norte 0 1013.2 -0.2 86
2019-09-20 07:00:00 21.8 6 Norte 9 Norte 0 1013.5 0.2 87
2019-09-20 06:00:00 21.1 5 Oeste 8 Oeste 0 1013.7 0.1 92
2019-09-20 05:00:00 20.7 6 Norte 13 Norte 0 1013.4 -0.2 92
2019-09-20 04:00:00 21.1 9 Norte 11 Norte 0 1013.3 -0.3 92
2019-09-20 03:00:00 21.8 7 Nordeste 17 Nordeste 0 1013.6 -0.3 90
2019-09-20 02:00:00 22.2 9 Nordeste 17 Nordeste 0 1013.6 -0.4 91
2019-09-20 01:00:00 22.1 11 Nordeste 18 Este 0 1013.6 -0.1 91
2019-09-20 00:00:00 22.9 12 Este 17 Nordeste 0 1013.9 0.7 87
2019-09-19 23:00:00 23.3 11 Este 18 Este 0 1014 1.3 86
2019-09-19 22:00:00 23.2 10 Nordeste 17 Este 0 1013.7 1.4 87
2019-09-19 21:00:00 23.1 9 Este 15 Este 0 1013.2 1 86
2019-09-19 20:00:00 23.3 8 Este 17 Norte 0 1012.7 0.2 85
2019-09-19 19:00:00 24.2 12 Este 17 Este 0 1012.3 -0.2 79
2019-09-19 18:00:00 25.2 11 Este 21 Este 0 1012.2 -0.9 72
2019-09-19 17:00:00 25.7 10 Este 18 Este 0 1012.5 -0.9 70
2019-09-19 16:00:00 25.9 10 Este 18 Este 0 1012.5 -1.5 69
2019-09-19 15:00:00 26.1 10 Este 21 Este 0 1013.1 -1 69
2019-09-19 14:00:00 25.5 11 Este 18 Este 0 1013.4 -0.4 71
2019-09-19 13:00:00 25.2 9 Este 18 Sudeste 0 1014 0.5 74
2019-09-19 12:00:00 24.8 9 Este 18 Este 0 1014.1 1.5 79
2019-09-19 11:00:00 24.2 8 Este 15 Este 0 1013.8 1.9 78
2019-09-19 10:00:00 23.6 3 Sur 8 Sudoeste 0 1013.5 1.8 71
2019-09-19 09:00:00 21.4 4 Sudoeste 11 Oeste 0 1012.6 0.8 76
2019-09-19 08:00:00 19.1 10 Oeste 13 Oeste 0 1011.9 0 88
2019-09-19 07:00:00 19.6 4 Norte 8 Norte 0 1011.7 -0.7 88
2019-09-19 06:00:00 -- 8 Noroeste 9 Noroeste 0 1011.8 -0.8 --
2019-09-19 05:00:00 19.9 9 Noroeste 11 Noroeste 0 1011.9 -0.6 93
2019-09-19 04:00:00 19.6 8 Noroeste -- -- 0 1012.4 -0.1 94
2019-09-19 03:00:00 19.8 7 Oeste -- -- 0 1012.6 0 95
2019-09-19 02:00:00 20 5 Oeste 9 Oeste 0 1012.5 0.2 95
2019-09-19 01:00:00 21.2 5 Oeste -- -- 0 1012.5 0.3 92
2019-09-19 00:00:00 23.2 6 Oeste 8 Oeste 0 1012.6 0.8 84
2019-09-18 23:00:00 22.7 0 Calma 8 Oeste 0 1012.3 1.2 88
2019-09-18 22:00:00 23.9 -- -- -- -- 0 1012.2 1.2 78
2019-09-18 21:00:00 23.4 5 Norte 8 Norte 0 1011.8 1.1 87
2019-09-18 20:00:00 23.7 4 Este 9 Este 0 1011.1 0.2 87
2019-09-18 19:00:00 24.5 8 Este 18 Sudeste 0 1011 -0.2 81
2019-09-18 18:00:00 25.2 12 Este 21 Este 0 1010.7 -0.9 78
2019-09-18 17:00:00 26.2 13 Este 21 Este 0 1010.9 -1 67
2019-09-18 16:00:00 26.3 14 Este 21 Este 0 1011.2 -1 71
2019-09-18 15:00:00 26.5 13 Este 21 Norte 0 1011.6 -0.9 70
2019-09-18 14:00:00 26.2 12 Este 18 Este 0 1011.9 -0.4 70
2019-09-18 13:00:00 26.2 9 Este 18 Este 0 1012.2 0.5 69
2019-09-18 12:00:00 25.5 12 Este 17 Este 0 1012.5 1.2 79
2019-09-18 11:00:00 25.1 7 Nordeste 17 Este 0 1012.3 1.8 76
2019-09-18 10:00:00 24.1 3 Nordeste 9 Norte 0 1011.7 1.7 73
2019-09-18 09:00:00 20.8 6 Oeste 11 Sudoeste 0 1011.3 1.4 90
2019-09-18 08:00:00 19.6 5 Noroeste 8 Norte 0 1010.5 0.4 94
2019-09-18 07:00:00 19.1 6 Sudoeste 11 Oeste 0 1010 -0.4 96
2019-09-18 06:00:00 19.5 10 Oeste 13 Oeste 0 1009.9 -0.8 96
2019-09-18 05:00:00 19.8 10 Sudoeste 13 Oeste 0 1010.1 -1 96
2019-09-18 04:00:00 19.9 9 Oeste 11 Oeste 0 1010.4 -1 97
2019-09-18 03:00:00 20.8 6 Oeste 15 Noroeste 0 1010.7 -1.2 95
2019-09-18 02:00:00 21 7 Oeste 9 Oeste 0 1011.1 -1.1 97
2019-09-18 01:00:00 22.2 7 Norte 15 Norte 0 1011.4 -0.7 93
2019-09-18 00:00:00 22.4 5 Norte 17 Norte 0 1011.9 0.6 92
2019-09-17 23:00:00 22.6 6 Norte 15 Oeste 0 1012.2 1.3 90
2019-09-17 22:00:00 22.3 8 Oeste 15 Sur 0 1012.1 1.3 93
2019-09-17 21:00:00 22.5 7 Sudoeste 15 Sur 0 1011.3 -0.2 91